No particular awareness of the weather is required.    There are no Weather-warnings


Meteo18 Weather Cam more information Meteo18 Weather Cam


Thunder radar more information blitzortung!


Rain radar more information rain snow radar


Visit our other weather sites:

Template documentation
and downloads

And another site



Weather Underground History page Text

Daily Summary for August 10, 2017 Units:  English    Metric   Both
« Previous Day
Next Day »
Daily Weekly Monthly Yearly Custom
  High: Low: Average:
Temperature: TemperatureC °F 9.4 °F 13 °F
Dew Point: DewpointC °F 8.3 °F 10.9 °F
Humidity: Humidity % 67 % 87 %
Wind Speed: WindSpeedKMH mph 0.0 mph 2.3 mph
Wind Gust: WindSpeedGustKMH mph - -
Wind:- - SW
Pressure: PressurehPa in 1019.9 in -
Precipitation: 1.5 in    
Historical Graphs
 
 
Tabular Data for August 10, 2017
Time Temperature Dew Point Pressure Wind Wind Speed Wind Gust Humidity Rainfall Rate (Hourly)
TemperatureC °F DewpointC °F PressurehPa in Calm     Humidity % HourlyPrecipMM in
00:02 12.3 °F 9.3 °F 1020.5 in SW 1.6 mph 4.8 mph 82 % 0.0 in
00:07 12.2 °F 9.4 °F 1020.5 in Calm   4.8 mph 83 % 0.0 in
00:12 12.1 °F 9.5 °F 1020.5 in WSW 3.2 mph 6.4 mph 84 % 0.0 in
00:17 11.9 °F 9.5 °F 1020.5 in SW 6.4 mph 6.4 mph 85 % 0.0 in
00:22 11.9 °F 9.8 °F 1020.5 in Calm   6.4 mph 87 % 0.0 in
00:27 11.8 °F 9.7 °F 1020.5 in SW 4.8 mph 8.0 mph 87 % 0.0 in
00:32 11.7 °F 9.8 °F 1020.5 in WSW 6.4 mph 8.0 mph 88 % 0.0 in
00:37 11.7 °F 9.8 °F 1020.5 in West 3.2 mph 8.0 mph 88 % 0.0 in
00:42 11.5 °F 9.6 °F 1020.5 in West 3.2 mph 8.0 mph 88 % 0.0 in
00:47 11.3 °F 9.6 °F 1020.5 in SW 1.6 mph 6.4 mph 89 % 0.0 in
00:52 11.2 °F 9.5 °F 1020.5 in SW 1.6 mph 4.8 mph 89 % 0.0 in
00:57 11.1 °F 9.4 °F 1020.5 in Calm   4.8 mph 89 % 0.0 in
01:02 10.9 °F 9.3 °F 1020.5 in Calm   4.8 mph 90 % 0.0 in
01:12 10.8 °F 9.2 °F 1020.5 in Calm   3.2 mph 90 % 0.0 in
01:17 10.7 °F 9.1 °F 1020.5 in Calm   1.6 mph 90 % 0.0 in
01:22 10.5 °F 8.9 °F 1020.5 in Calm   1.6 mph 90 % 0.0 in
01:27 10.4 °F 9.0 °F 1020.9 in Calm   1.6 mph 91 % 0.0 in
01:32 10.3 °F 8.9 °F 1020.9 in Calm   1.6 mph 91 % 0.0 in
01:37 10.2 °F 9.0 °F 1020.9 in Calm   1.6 mph 92 % 0.0 in
01:42 10.0 °F 8.8 °F 1020.9 in Calm   1.6 mph 92 % 0.0 in
01:47 9.9 °F 8.7 °F 1020.9 in Calm   1.6 mph 92 % 0.0 in
01:52 9.8 °F 8.7 °F 1020.9 in SSW 1.6 mph 1.6 mph 93 % 0.0 in
01:57 9.9 °F 8.8 °F 1020.9 in Calm   3.2 mph 93 % 0.0 in
02:02 10.1 °F 9.0 °F 1020.9 in West 1.6 mph 3.2 mph 93 % 0.0 in
02:12 10.2 °F 9.0 °F 1020.9 in Calm   3.2 mph 92 % 0.0 in
02:17 10.2 °F 9.0 °F 1020.9 in Calm   3.2 mph 92 % 0.0 in
02:22 9.9 °F 8.7 °F 1020.9 in ESE 1.6 mph 4.8 mph 92 % 0.0 in
02:32 9.6 °F 8.5 °F 1021.2 in Calm   3.2 mph 93 % 0.0 in
02:37 9.5 °F 8.4 °F 1021.2 in Calm   1.6 mph 93 % 0.0 in
02:42 9.4 °F 8.3 °F 1021.2 in SSW 4.8 mph 4.8 mph 93 % 0.0 in
02:47 9.5 °F 8.6 °F 1021.2 in Calm   4.8 mph 94 % 0.0 in
02:52 9.4 °F 8.5 °F 1021.2 in Calm   4.8 mph 94 % 0.0 in
02:57 9.4 °F 8.5 °F 1021.2 in Calm   4.8 mph 94 % 0.0 in
03:02 9.5 °F 8.6 °F 1021.2 in Calm   3.2 mph 94 % 0.0 in
03:12 9.5 °F 8.6 °F 1021.2 in Calm     94 % 0.0 in
03:17 9.6 °F 8.7 °F 1021.2 in Calm     94 % 0.0 in
03:22 9.6 °F 8.7 °F 1021.2 in Calm     94 % 0.0 in
03:27 9.6 °F 8.7 °F 1020.9 in Calm     94 % 0.0 in
03:32 9.6 °F 8.7 °F 1020.9 in Calm     94 % 0.0 in
03:37 9.7 °F 8.9 °F 1020.9 in Calm     95 % 0.0 in
03:42 9.8 °F 9.0 °F 1020.9 in Calm     95 % 0.0 in
03:47 9.8 °F 9.0 °F 1020.9 in SW 3.2 mph 3.2 mph 95 % 0.0 in
03:52 9.9 °F 9.1 °F 1020.9 in SW 3.2 mph 4.8 mph 95 % 0.0 in
03:57 10.0 °F 9.2 °F 1020.9 in WSW 3.2 mph 4.8 mph 95 % 0.0 in
04:02 10.1 °F 9.3 °F 1020.9 in Calm   4.8 mph 95 % 0.0 in
04:12 10.1 °F 9.3 °F 1020.9 in Calm   4.8 mph 95 % 0.0 in
04:17 10.1 °F 9.2 °F 1020.5 in Calm   1.6 mph 94 % 0.0 in
04:22 10.1 °F 9.2 °F 1020.9 in Calm     94 % 0.0 in
04:27 10.2 °F 9.3 °F 1020.9 in Calm     94 % 0.0 in
04:32 10.2 °F 9.3 °F 1020.9 in Calm     94 % 0.0 in
04:37 10.2 °F 9.4 °F 1020.5 in Calm     95 % 0.0 in
04:42 10.2 °F 9.3 °F 1020.5 in Calm     94 % 0.0 in
04:47 10.2 °F 9.4 °F 1020.5 in Calm   1.6 mph 95 % 0.0 in
04:52 10.2 °F 9.4 °F 1020.5 in Calm   1.6 mph 95 % 0.0 in
04:57 10.2 °F 9.4 °F 1020.2 in Calm   1.6 mph 95 % 0.0 in
05:02 10.1 °F 9.3 °F 1020.2 in Calm   1.6 mph 95 % 0.0 in
05:17 10.1 °F 9.3 °F 1020.2 in Calm     95 % 0.0 in
05:22 10.2 °F 9.4 °F 1020.5 in Calm     95 % 0.0 in
05:27 10.2 °F 9.4 °F 1020.2 in Calm     95 % 0.0 in
05:32 10.2 °F 9.4 °F 1020.2 in Calm     95 % 0.0 in
05:37 10.2 °F 9.4 °F 1020.2 in Calm     95 % 0.0 in
05:42 10.3 °F 9.5 °F 1020.2 in SE 1.6 mph   95 % 0.0 in
05:47 10.3 °F 9.5 °F 1020.2 in SSE 1.6 mph 3.2 mph 95 % 0.0 in
05:52 10.3 °F 9.5 °F 1020.2 in Calm   3.2 mph 95 % 0.0 in
05:57 10.3 °F 9.5 °F 1020.2 in SSW 1.6 mph 4.8 mph 95 % 0.0 in
06:02 10.3 °F 9.5 °F 1020.2 in South 3.2 mph 4.8 mph 95 % 0.0 in
06:07 10.3 °F 9.5 °F 1020.2 in SSW 4.8 mph 6.4 mph 95 % 0.0 in
06:12 10.3 °F 9.5 °F 1020.2 in SSW 3.2 mph 6.4 mph 95 % 0.0 in
06:17 10.3 °F 9.5 °F 1020.2 in WSW 1.6 mph 6.4 mph 95 % 0.0 in
06:22 10.3 °F 9.5 °F 1020.2 in WSW 4.8 mph 6.4 mph 95 % 0.0 in
06:32 10.4 °F 9.6 °F 1020.2 in SW 4.8 mph 6.4 mph 95 % 0.0 in
06:42 10.4 °F 9.5 °F 1020.2 in SSW 1.6 mph 8.0 mph 94 % 0.0 in
06:52 10.5 °F 9.6 °F 1020.5 in Calm   8.0 mph 94 % 0.0 in
07:02 10.5 °F 9.6 °F 1020.5 in Calm   3.2 mph 94 % 0.0 in
07:12 10.5 °F 9.6 °F 1020.5 in Calm     94 % 0.0 in
07:17 10.5 °F 9.6 °F 1020.5 in Calm     94 % 0.0 in
07:22 10.5 °F 9.7 °F 1020.5 in Calm     95 % 0.0 in
07:27 10.6 °F 9.8 °F 1020.5 in Calm     95 % 0.0 in
07:32 10.6 °F 9.8 °F 1020.5 in Calm     95 % 0.0 in
07:42 10.7 °F 9.9 °F 1020.5 in SSW 1.6 mph 3.2 mph 95 % 0.0 in
07:47 10.8 °F 10.0 °F 1020.5 in SSE 1.6 mph 4.8 mph 95 % 0.0 in
07:52 10.8 °F 10.0 °F 1020.5 in SW 3.2 mph 4.8 mph 95 % 0.0 in
08:02 11.0 °F 10.1 °F 1020.5 in South 3.2 mph 6.4 mph 94 % 0.0 in
08:12 11.1 °F 10.2 °F 1020.9 in Calm   9.7 mph 94 % 0.0 in
08:17 11.2 °F 10.3 °F 1020.9 in Calm   6.4 mph 94 % 0.0 in
08:22 11.2 °F 10.3 °F 1020.9 in Calm   6.4 mph 94 % 0.0 in
08:27 11.2 °F 10.1 °F 1020.9 in SSW 1.6 mph 4.8 mph 93 % 0.0 in
08:32 11.3 °F 10.4 °F 1020.9 in Calm   4.8 mph 94 % 0.0 in
08:42 11.4 °F 10.3 °F 1020.9 in SSE 1.6 mph 6.4 mph 93 % 0.0 in
08:47 11.6 °F 10.5 °F 1020.9 in SSW 1.6 mph 6.4 mph 93 % 0.0 in
08:52 11.6 °F 10.5 °F 1020.9 in SW 3.2 mph 6.4 mph 93 % 0.0 in
09:02 11.6 °F 10.3 °F 1020.9 in SW 4.8 mph 6.4 mph 92 % 0.0 in
09:12 11.7 °F 10.4 °F 1020.9 in SSW 6.4 mph 6.4 mph 92 % 0.0 in
09:17 11.8 °F 10.5 °F 1020.9 in SW 8.0 mph 9.7 mph 92 % 0.0 in
09:22 11.9 °F 10.6 °F 1020.9 in SW 8.0 mph 9.7 mph 92 % 0.0 in
09:27 12.0 °F 10.7 °F 1020.9 in SE 4.8 mph 9.7 mph 92 % 0.0 in
09:32 12.2 °F 10.8 °F 1020.9 in South 3.2 mph 9.7 mph 91 % 0.0 in
09:37 12.1 °F 10.7 °F 1020.9 in SW 3.2 mph 9.7 mph 91 % 0.0 in
09:42 12.2 °F 10.8 °F 1020.9 in SSW 1.6 mph 9.7 mph 91 % 0.0 in
09:47 12.3 °F 10.9 °F 1020.9 in SW 8.0 mph 9.7 mph 91 % 0.0 in
09:52 12.3 °F 10.9 °F 1020.9 in SW 3.2 mph 9.7 mph 91 % 0.0 in
09:57 12.6 °F 11.2 °F 1020.9 in SW 8.0 mph 9.7 mph 91 % 0.0 in
10:02 12.6 °F 11.2 °F 1020.9 in WSW 3.2 mph 9.7 mph 91 % 0.0 in
10:12 12.7 °F 11.1 °F 1021.2 in SW 3.2 mph 9.7 mph 90 % 0.0 in
10:17 12.8 °F 11.2 °F 1021.2 in SSW 1.6 mph 9.7 mph 90 % 0.0 in
10:22 13.0 °F 11.4 °F 1021.2 in SSW 4.8 mph 9.7 mph 90 % 0.0 in
10:27 13.1 °F 11.5 °F 1020.9 in South 6.4 mph 8.0 mph 90 % 0.0 in
10:32 13.3 °F 11.5 °F 1020.9 in SW 8.0 mph 8.0 mph 89 % 0.0 in
10:37 13.3 °F 11.5 °F 1020.9 in SW 4.8 mph 8.0 mph 89 % 0.0 in
10:42 13.4 °F 11.6 °F 1020.9 in Calm   8.0 mph 89 % 0.0 in
10:47 13.5 °F 11.7 °F 1020.9 in SW 1.6 mph 9.7 mph 89 % 0.0 in
10:52 13.4 °F 11.6 °F 1021.2 in SW 3.2 mph 9.7 mph 89 % 0.0 in
10:57 13.5 °F 11.7 °F 1021.2 in WSW 3.2 mph 6.4 mph 89 % 0.0 in
11:02 13.6 °F 12.0 °F 1020.9 in South 1.6 mph 6.4 mph 90 % 0.0 in
11:07 13.7 °F 12.1 °F 1021.2 in Calm   4.8 mph 90 % 0.0 in
11:12 13.8 °F 12.2 °F 1021.2 in SW 6.4 mph 6.4 mph 90 % 0.0 in
11:17 13.9 °F 11.9 °F 1021.2 in West 3.2 mph 8.0 mph 88 % 0.0 in
11:27 14.2 °F 12.2 °F 1020.9 in Calm   8.0 mph 88 % 0.0 in
11:32 14.4 °F 12.3 °F 1021.2 in SW 3.2 mph 8.0 mph 87 % 0.0 in
11:37 14.6 °F 12.3 °F 1020.9 in West 1.6 mph 8.0 mph 86 % 0.0 in
11:42 14.6 °F 12.3 °F 1020.9 in WSW 6.4 mph 8.0 mph 86 % 0.0 in
11:52 14.4 °F 12.1 °F 1020.9 in WSW 6.4 mph 8.0 mph 86 % 0.0 in
11:57 14.4 °F 12.3 °F 1020.9 in WSW 3.2 mph 9.7 mph 87 % 0.0 in
12:02 14.3 °F 12.2 °F 1020.9 in WSW 6.4 mph 9.7 mph 87 % 0.0 in
12:12 14.3 °F 12.0 °F 1020.9 in WSW 3.2 mph 8.0 mph 86 % 0.3 in
12:17 14.6 °F 12.5 °F 1020.9 in WSW 4.8 mph 11.3 mph 87 % 0.3 in
12:22 14.7 °F 12.0 °F 1020.9 in WSW 8.0 mph 11.3 mph 84 % 0.3 in
12:27 14.7 °F 11.8 °F 1020.9 in WSW 3.2 mph 8.0 mph 83 % 0.3 in
12:32 14.9 °F 12.4 °F 1020.9 in WSW 8.0 mph 8.0 mph 85 % 0.3 in
12:37 14.9 °F 11.9 °F 1020.9 in WSW 4.8 mph 8.0 mph 82 % 0.3 in
12:42 15.0 °F 12.3 °F 1020.9 in SW 6.4 mph 8.0 mph 84 % 0.3 in
12:52 15.1 °F 12.2 °F 1020.9 in WSW 4.8 mph 12.9 mph 83 % 0.3 in
12:57 15.3 °F 12.6 °F 1020.9 in SW 1.6 mph 11.3 mph 84 % 0.3 in
13:02 15.4 °F 12.3 °F 1020.9 in West 8.0 mph 11.3 mph 82 % 0.0 in
13:12 15.4 °F 12.0 °F 1020.9 in West 4.8 mph 9.7 mph 80 % 0.0 in
13:17 15.4 °F 11.8 °F 1020.9 in WSW 3.2 mph 9.7 mph 79 % 0.0 in
13:22 15.6 °F 12.2 °F 1020.9 in West 6.4 mph 11.3 mph 80 % 0.0 in
13:32 15.3 °F 11.9 °F 1020.9 in SW 12.9 mph 12.9 mph 80 % 0.0 in
13:37 15.2 °F 12.0 °F 1020.9 in SW 16.1 mph 16.1 mph 81 % 0.0 in
13:42 15.1 °F 11.9 °F 1020.9 in SW 6.4 mph 16.1 mph 81 % 0.0 in
13:47 15.2 °F 12.0 °F 1020.9 in SW 9.7 mph 16.1 mph 81 % 0.0 in
13:57 15.1 °F 11.9 °F 1020.9 in SW 3.2 mph 14.5 mph 81 % 0.0 in
14:02 15.2 °F 11.8 °F 1020.9 in SW 4.8 mph 14.5 mph 80 % 0.0 in
14:12 15.2 °F 11.6 °F 1020.9 in SSW 8.0 mph 9.7 mph 79 % 0.0 in
14:17 15.2 °F 12.0 °F 1020.9 in SW 1.6 mph 9.7 mph 81 % 0.0 in
14:22 15.4 °F 12.0 °F 1020.9 in WSW 1.6 mph 9.7 mph 80 % 0.0 in
14:27 15.6 °F 12.4 °F 1020.9 in SSW 3.2 mph 9.7 mph 81 % 0.0 in
14:32 15.6 °F 12.2 °F 1020.9 in WSW 6.4 mph 9.7 mph 80 % 0.0 in
14:37 15.7 °F 12.3 °F 1020.9 in SW 3.2 mph 9.7 mph 80 % 0.0 in
14:42 15.7 °F 12.4 °F 1020.9 in WSW 4.8 mph 9.7 mph 81 % 0.0 in
14:47 15.7 °F 12.3 °F 1020.5 in SW 4.8 mph 9.7 mph 80 % 0.0 in
14:52 15.6 °F 12.4 °F 1020.5 in Calm   9.7 mph 81 % 0.0 in
14:57 15.6 °F 12.4 °F 1020.9 in SW 6.4 mph 9.7 mph 81 % 0.0 in
15:02 15.4 °F 12.5 °F 1020.5 in SW 1.6 mph 12.9 mph 83 % 0.0 in
15:12 15.3 °F 12.6 °F 1020.5 in WSW 1.6 mph 12.9 mph 84 % 0.0 in
15:17 15.4 °F 12.5 °F 1020.5 in WSW 1.6 mph 9.7 mph 83 % 0.0 in
15:22 15.3 °F 12.2 °F 1020.5 in WNW 4.8 mph 6.4 mph 82 % 0.0 in
15:27 15.2 °F 12.1 °F 1020.5 in West 3.2 mph 9.7 mph 82 % 0.0 in
15:32 15.2 °F 11.8 °F 1020.5 in WSW 3.2 mph 9.7 mph 80 % 0.0 in
15:37 15.4 °F 12.2 °F 1020.5 in WSW 4.8 mph 9.7 mph 81 % 0.0 in
15:42 15.5 °F 12.1 °F 1020.5 in West 4.8 mph 8.0 mph 80 % 0.0 in
15:47 15.6 °F 12.2 °F 1020.5 in WNW 4.8 mph 8.0 mph 80 % 0.0 in
15:52 15.7 °F 12.3 °F 1020.5 in WNW 4.8 mph 8.0 mph 80 % 0.0 in
15:57 15.8 °F 12.5 °F 1020.5 in WNW 6.4 mph 6.4 mph 81 % 0.0 in
16:02 15.8 °F 12.0 °F 1020.5 in WNW 1.6 mph 8.0 mph 78 % 0.0 in
16:12 15.7 °F 12.1 °F 1020.5 in West 1.6 mph 8.0 mph 79 % 0.0 in
16:17 15.5 °F 12.6 °F 1020.5 in SW 3.2 mph 6.4 mph 83 % 0.5 in
16:22 15.4 °F 12.7 °F 1020.5 in WSW 3.2 mph 6.4 mph 84 % 0.5 in
16:27 15.3 °F 12.4 °F 1020.5 in SW 1.6 mph 6.4 mph 83 % 0.5 in
16:32 15.4 °F 12.5 °F 1020.5 in SSW 3.2 mph 6.4 mph 83 % 0.5 in
16:37 15.4 °F 12.7 °F 1020.2 in SSW 3.2 mph 6.4 mph 84 % 0.5 in
16:42 15.4 °F 12.5 °F 1020.2 in SW 1.6 mph 4.8 mph 83 % 0.5 in
16:47 15.4 °F 12.5 °F 1020.2 in Calm   6.4 mph 83 % 0.5 in
16:52 15.4 °F 12.7 °F 1020.2 in WSW 3.2 mph 8.0 mph 84 % 0.5 in
16:57 15.4 °F 12.5 °F 1020.2 in Calm   8.0 mph 83 % 0.5 in
17:02 15.6 °F 12.5 °F 1020.2 in WNW 1.6 mph 6.4 mph 82 % 0.5 in
17:07 15.7 °F 12.6 °F 1019.9 in Calm   6.4 mph 82 % 0.5 in
17:12 15.8 °F 12.5 °F 1019.9 in Calm   6.4 mph 81 % 0.3 in
17:17 15.9 °F 12.3 °F 1019.9 in Calm   4.8 mph 79 % 0.0 in
17:22 16.0 °F 12.2 °F 1019.9 in Calm   4.8 mph 78 % 0.0 in
17:27 16.1 °F 12.1 °F 1019.9 in Calm   3.2 mph 77 % 0.0 in
17:32 16.2 °F 12.6 °F 1019.9 in Calm   3.2 mph 79 % 0.0 in
17:37 16.2 °F 12.6 °F 1019.9 in WSW 3.2 mph 3.2 mph 79 % 0.0 in
17:42 16.2 °F 12.7 °F 1019.9 in WSW 1.6 mph 4.8 mph 80 % 0.0 in
17:47 16.2 °F 12.6 °F 1020.2 in Calm   4.8 mph 79 % 0.0 in
17:52 16.3 °F 12.1 °F 1019.9 in WNW 1.6 mph 8.0 mph 76 % 0.0 in
17:57 16.5 °F 12.1 °F 1019.9 in NNW 3.2 mph 8.0 mph 75 % 0.0 in
18:02 16.6 °F 11.9 °F 1019.9 in North 4.8 mph 8.0 mph 74 % 0.0 in
18:07 16.4 °F 11.8 °F 1019.9 in WNW 3.2 mph 8.0 mph 74 % 0.0 in
18:12 16.4 °F 12.2 °F 1019.9 in WNW 3.2 mph 4.8 mph 76 % 0.0 in
18:17 16.4 °F 12.2 °F 1019.9 in NW 3.2 mph 6.4 mph 76 % 0.0 in
18:22 16.6 °F 12.1 °F 1019.9 in WNW 3.2 mph 6.4 mph 75 % 0.0 in
18:32 17.1 °F 12.2 °F 1019.9 in WNW 6.4 mph 8.0 mph 73 % 0.0 in
18:37 17.1 °F 11.6 °F 1019.9 in West 4.8 mph 8.0 mph 70 % 0.0 in
18:42 17.2 °F 11.5 °F 1019.9 in WNW 1.6 mph 9.7 mph 69 % 0.0 in
18:47 17.1 °F 10.9 °F 1019.9 in WNW 1.6 mph 9.7 mph 67 % 0.0 in
18:52 17.2 °F 11.5 °F 1019.9 in WNW 4.8 mph 9.7 mph 69 % 0.0 in
18:57 17.6 °F 12.1 °F 1019.9 in NW 1.6 mph 6.4 mph 70 % 0.0 in
19:02 17.7 °F 11.5 °F 1019.9 in Calm   6.4 mph 67 % 0.0 in
19:07 18.1 °F 11.9 °F 1019.9 in Calm   6.4 mph 67 % 0.0 in
19:17 18.0 °F 11.8 °F 1019.9 in NE 1.6 mph 4.8 mph 67 % 0.0 in
19:22 17.6 °F 11.6 °F 1019.9 in North 4.8 mph 4.8 mph 68 % 0.0 in
19:27 17.3 °F 11.1 °F 1020.2 in NNW 1.6 mph 6.4 mph 67 % 0.0 in
19:32 17.0 °F 12.3 °F 1020.2 in North 8.0 mph 9.7 mph 74 % 0.0 in
19:37 16.5 °F 12.3 °F 1020.2 in North 3.2 mph 9.7 mph 76 % 0.0 in
19:42 16.2 °F 12.0 °F 1020.2 in NNE 1.6 mph 9.7 mph 76 % 0.0 in
19:47 16.0 °F 12.2 °F 1020.2 in NNW 9.7 mph 9.7 mph 78 % 0.0 in
19:52 15.4 °F 10.0 °F 1020.2 in NW 4.8 mph 17.7 mph 70 % 0.0 in
19:57 15.1 °F 11.1 °F 1020.2 in West 4.8 mph 17.7 mph 77 % 0.3 in
20:02 14.7 °F 11.3 °F 1020.2 in West 3.2 mph 17.7 mph 80 % 0.5 in
20:12 14.0 °F 10.6 °F 1020.5 in Calm   9.7 mph 80 % 0.5 in
20:17 13.9 °F 10.9 °F 1020.5 in Calm   8.0 mph 82 % 0.5 in
20:22 13.9 °F 11.2 °F 1020.5 in WNW 3.2 mph 6.4 mph 84 % 0.5 in
20:27 14.0 °F 11.5 °F 1020.5 in WNW 6.4 mph 6.4 mph 85 % 0.5 in
20:32 14.1 °F 11.6 °F 1020.5 in WNW 6.4 mph 9.7 mph 85 % 0.5 in
20:37 14.2 °F 11.9 °F 1020.5 in West 1.6 mph 11.3 mph 86 % 0.5 in
20:42 14.3 °F 12.0 °F 1020.5 in Calm   11.3 mph 86 % 0.5 in
20:47 14.3 °F 12.0 °F 1020.5 in WNW 1.6 mph 8.0 mph 86 % 0.5 in
20:52 14.1 °F 11.8 °F 1020.5 in NW 1.6 mph 6.4 mph 86 % 0.5 in
20:57 13.9 °F 11.8 °F 1020.9 in Calm   4.8 mph 87 % 0.3 in
21:02 13.7 °F 11.6 °F 1020.9 in Calm   4.8 mph 87 % 0.0 in
21:07 13.6 °F 11.6 °F 1020.9 in Calm   3.2 mph 88 % 0.0 in
21:12 13.5 °F 11.7 °F 1020.9 in Calm   3.2 mph 89 % 0.0 in
21:17 13.4 °F 11.8 °F 1020.9 in Calm   1.6 mph 90 % 0.0 in
21:22 13.2 °F 11.8 °F 1020.9 in Calm   1.6 mph 91 % 0.0 in
21:27 13.2 °F 11.8 °F 1020.9 in Calm   1.6 mph 91 % 0.0 in
21:32 13.1 °F 11.7 °F 1020.9 in Calm   1.6 mph 91 % 0.0 in
21:42 13.0 °F 11.7 °F 1021.2 in Calm     92 % 0.0 in
21:47 12.8 °F 11.5 °F 1020.9 in Calm     92 % 0.0 in
21:52 12.7 °F 11.4 °F 1021.2 in Calm     92 % 0.0 in
21:57 12.6 °F 11.3 °F 1021.2 in Calm     92 % 0.0 in
22:02 12.6 °F 11.5 °F 1021.2 in Calm     93 % 0.0 in
22:07 12.6 °F 11.5 °F 1021.2 in Calm     93 % 0.0 in
22:12 12.5 °F 11.4 °F 1021.6 in Calm     93 % 0.0 in
22:17 12.4 °F 11.3 °F 1021.6 in Calm     93 % 0.0 in
22:22 12.4 °F 11.3 °F 1021.6 in Calm     93 % 0.0 in
22:27 12.3 °F 11.4 °F 1021.6 in Calm     94 % 0.0 in
22:32 12.4 °F 11.5 °F 1021.6 in Calm     94 % 0.3 in
22:37 12.4 °F 11.5 °F 1021.6 in Calm     94 % 0.3 in
22:42 12.4 °F 11.5 °F 1021.6 in Calm     94 % 0.5 in
22:47 12.4 °F 11.5 °F 1021.6 in Calm     94 % 0.5 in
22:52 12.5 °F 11.6 °F 1021.6 in Calm   1.6 mph 94 % 0.5 in
22:57 12.5 °F 11.6 °F 1021.6 in Calm   1.6 mph 94 % 0.5 in
23:02 12.4 °F 11.5 °F 1021.6 in Calm   1.6 mph 94 % 0.5 in
23:12 12.4 °F 11.5 °F 1021.6 in Calm   1.6 mph 94 % 0.5 in
23:17 12.3 °F 11.4 °F 1021.6 in Calm   1.6 mph 94 % 0.5 in
23:22 12.2 °F 11.3 °F 1021.6 in Calm   1.6 mph 94 % 0.5 in
23:32 12.3 °F 11.4 °F 1021.6 in NW 3.2 mph 3.2 mph 94 % 0.3 in
23:42 12.6 °F 11.7 °F 1021.6 in NW 4.8 mph 9.7 mph 94 % 0.0 in
23:47 12.6 °F 11.5 °F 1021.6 in Calm   9.7 mph 93 % 0.0 in
23:52 12.6 °F 11.5 °F 1021.6 in Calm   9.7 mph 93 % 0.0 in
23:57 12.5 °F 11.4 °F 1021.6 in Calm   6.4 mph 93 % 0.0 in
Meteo18
Compliments of Weather Underground - 4 mb

Script developed by  Jim McMurry - jmcmurry@mwt.net Adapted for the template by  Wim van der Kuil - Leuven-Template.eu

You find our weather info also at:

European Weather Network

Weather Underground

Equipment we use:

Weather-station
Davis Vue

Weather-program
Meteobridge

Weather-server
Raspberry PI 2 B+

Provider
1 and 1

Davis Vue

Meteobridge

Raspberry PI 2 B+

1 and 1